createdAt,value
2023-03-26T00:01:32.168Z,95264.97
2023-03-26T00:03:59.508Z,95266.03
2023-03-26T00:06:37.591Z,95254.97
2023-03-26T00:09:06.973Z,95264.47
2023-03-26T00:11:34.364Z,95265.06
2023-03-26T00:14:00.838Z,95265.59
2023-03-26T00:16:29.699Z,95281.72
2023-03-26T00:18:57.017Z,95271.97
2023-03-26T00:21:25.461Z,95270.63
2023-03-26T00:23:52.106Z,95269.69
2023-03-26T00:26:18.565Z,95258.84
2023-03-26T00:28:45.046Z,95252.94
2023-03-26T00:31:14.539Z,95255.13
2023-03-26T00:33:42.171Z,95256.16
2023-03-26T00:36:16.137Z,95269.19
2023-03-26T00:38:44.923Z,95283.06
2023-03-26T00:41:14.103Z,95291.50
2023-03-26T00:43:40.568Z,95296.16
2023-03-26T00:46:07.043Z,95274.88
2023-03-26T00:48:44.588Z,95270.81
2023-03-26T00:51:14.485Z,95271.69
2023-03-26T00:53:42.115Z,95261.00
2023-03-26T00:56:09.438Z,95260.25
2023-03-26T00:58:36.172Z,95258.63
2023-03-26T01:01:06.624Z,95261.44
2023-03-26T01:03:36.283Z,95263.06
2023-03-26T01:06:05.662Z,95256.03
2023-03-26T01:08:40.013Z,95241.16
2023-03-26T01:11:11.559Z,95235.13
2023-03-26T01:13:38.868Z,95242.41
2023-03-26T01:16:15.850Z,95231.78
2023-03-26T01:18:42.387Z,95205.06
2023-03-26T01:21:08.893Z,95221.78
2023-03-26T01:23:42.889Z,95202.69
2023-03-26T01:26:27.393Z,95171.78
2023-03-26T01:28:59.456Z,95154.78
2023-03-26T01:31:34.682Z,95163.28
2023-03-26T01:34:30.740Z,95163.31
2023-03-26T01:37:12.875Z,95160.78
2023-03-26T01:39:54.838Z,95170.19
2023-03-26T01:42:43.546Z,95167.75
2023-03-26T01:45:16.320Z,95166.72
2023-03-26T01:47:45.078Z,95163.94
2023-03-26T01:50:12.657Z,95154.66
2023-03-26T01:52:39.126Z,95149.38
2023-03-26T01:55:08.417Z,95139.22
2023-03-26T01:57:45.434Z,95127.50
2023-03-26T02:00:27.946Z,95116.75
2023-03-26T02:03:15.683Z,95113.81
2023-03-26T02:05:52.379Z,95114.28
2023-03-26T02:08:34.032Z,95120.22
2023-03-26T02:11:09.358Z,95116.44
2023-03-26T02:13:37.200Z,95110.81
2023-03-26T02:16:07.656Z,95104.31
2023-03-26T02:18:35.361Z,95102.75
2023-03-26T02:21:07.464Z,95107.97
2023-03-26T02:23:33.915Z,95097.81
2023-03-26T02:26:00.383Z,95110.44
2023-03-26T02:28:26.940Z,95096.34
2023-03-26T02:30:53.541Z,95089.13
2023-03-26T02:33:20.013Z,95076.69
2023-03-26T02:35:46.557Z,95077.91
2023-03-26T02:38:13.136Z,95083.75
2023-03-26T02:40:40.127Z,95078.28
2023-03-26T02:43:07.122Z,95082.34
2023-03-26T02:45:33.709Z,95060.56
2023-03-26T02:48:00.222Z,95058.31
2023-03-26T02:50:26.904Z,95058.38
2023-03-26T02:52:53.349Z,95062.03
2023-03-26T02:55:19.866Z,95050.50
2023-03-26T02:57:46.413Z,95053.56
2023-03-26T03:00:13.397Z,95051.50
2023-03-26T03:02:39.966Z,95040.31
2023-03-26T03:05:06.764Z,95034.13
2023-03-26T03:07:33.325Z,95029.16
2023-03-26T03:09:59.848Z,95025.56
2023-03-26T03:12:26.298Z,95015.09
2023-03-26T03:14:52.773Z,95013.91
2023-03-26T03:17:19.287Z,95004.97
2023-03-26T03:19:45.733Z,95010.91
2023-03-26T03:22:12.338Z,95005.72
2023-03-26T03:24:38.820Z,95000.22
2023-03-26T03:27:05.732Z,94986.81
2023-03-26T03:29:32.260Z,94983.53
2023-03-26T03:31:58.731Z,94991.03
2023-03-26T03:34:25.217Z,94983.22
2023-03-26T03:36:51.780Z,94987.13
2023-03-26T03:39:18.232Z,94979.34
2023-03-26T03:41:44.721Z,94979.53
2023-03-26T03:44:11.218Z,94969.00
2023-03-26T03:46:37.814Z,94973.44
2023-03-26T03:49:04.315Z,94967.19
2023-03-26T03:51:30.773Z,94966.53
2023-03-26T03:53:57.235Z,94956.03
2023-03-26T03:56:23.712Z,94961.41
2023-03-26T03:58:50.532Z,94957.75
2023-03-26T04:01:17.151Z,94958.50
2023-03-26T04:03:43.936Z,94955.66
2023-03-26T04:06:10.482Z,94948.59
2023-03-26T04:08:36.986Z,94937.88
2023-03-26T04:11:03.561Z,94938.50
2023-03-26T04:13:30.189Z,94941.19
2023-03-26T04:15:56.980Z,94934.81
2023-03-26T04:18:23.760Z,94938.25
2023-03-26T04:20:50.211Z,94930.31
2023-03-26T04:23:18.606Z,94937.84
2023-03-26T04:25:49.310Z,94920.56
2023-03-26T04:28:34.880Z,94932.13
2023-03-26T04:31:03.133Z,94923.19
2023-03-26T04:33:32.637Z,94927.53
2023-03-26T04:36:00.556Z,94929.38
2023-03-26T04:38:29.321Z,94924.22
2023-03-26T04:40:55.782Z,94925.69
2023-03-26T04:43:22.267Z,94921.81
2023-03-26T04:45:48.755Z,94923.56
2023-03-26T04:48:15.350Z,94910.41
2023-03-26T04:50:45.048Z,94900.81
2023-03-26T04:53:15.955Z,94908.78
2023-03-26T04:56:00.133Z,94918.38
2023-03-26T04:58:27.025Z,94927.09
2023-03-26T05:00:53.583Z,94920.03
2023-03-26T05:03:20.110Z,94911.06
2023-03-26T05:05:46.740Z,94913.06
2023-03-26T05:08:13.219Z,94914.88
2023-03-26T05:10:39.758Z,94923.31
2023-03-26T05:13:06.236Z,94919.78
2023-03-26T05:15:32.725Z,94934.00
2023-03-26T05:17:59.240Z,94934.56
2023-03-26T05:20:28.471Z,94924.47
2023-03-26T05:22:55.029Z,94913.88
2023-03-26T05:25:21.746Z,94913.34
2023-03-26T05:27:48.309Z,94895.91
2023-03-26T05:30:20.069Z,94876.16
2023-03-26T05:32:48.467Z,94874.09
2023-03-26T05:35:16.029Z,94862.59
2023-03-26T05:37:43.783Z,94853.97
2023-03-26T05:40:12.093Z,94853.91
2023-03-26T05:42:39.757Z,94871.69
2023-03-26T05:45:07.940Z,94861.28
2023-03-26T05:47:34.990Z,94849.38
2023-03-26T05:50:01.634Z,94850.25
2023-03-26T05:52:28.766Z,94858.41
2023-03-26T05:54:55.276Z,94852.03
2023-03-26T05:57:21.843Z,94865.38
2023-03-26T05:59:48.443Z,94878.22
2023-03-26T06:02:15.248Z,94867.00
2023-03-26T06:04:41.889Z,94882.19
2023-03-26T06:07:08.673Z,94896.56
2023-03-26T06:09:35.785Z,94901.28
2023-03-26T06:12:02.297Z,94903.97
2023-03-26T06:14:28.762Z,94915.91
2023-03-26T06:16:55.251Z,94904.59
2023-03-26T06:19:21.762Z,94908.69
2023-03-26T06:21:48.290Z,94917.41
2023-03-26T06:24:14.932Z,94931.19
2023-03-26T06:26:41.441Z,94913.25
2023-03-26T06:29:08.511Z,94894.56
2023-03-26T06:31:35.095Z,94885.34
2023-03-26T06:34:01.624Z,94889.97
2023-03-26T06:36:28.103Z,94891.19
2023-03-26T06:38:54.595Z,94885.13
2023-03-26T06:41:21.069Z,94897.00
2023-03-26T06:43:47.589Z,94882.41
2023-03-26T06:46:14.361Z,94883.75
2023-03-26T06:48:41.464Z,94874.06
2023-03-26T06:51:09.406Z,94867.53
2023-03-26T06:53:35.897Z,94854.38
2023-03-26T06:56:02.393Z,94854.25
2023-03-26T06:58:29.405Z,94863.03
2023-03-26T07:00:56.796Z,94856.28
2023-03-26T07:03:23.968Z,94860.66
2023-03-26T07:05:50.488Z,94870.19
2023-03-26T07:08:16.941Z,94867.66
2023-03-26T07:10:44.062Z,94868.91
2023-03-26T07:13:10.775Z,94871.56
2023-03-26T07:15:37.668Z,94860.09
2023-03-26T07:18:04.465Z,94865.22
2023-03-26T07:20:31.247Z,94858.97
2023-03-26T07:22:57.964Z,94858.75
2023-03-26T07:25:25.231Z,94856.22
2023-03-26T07:27:54.725Z,94842.66
2023-03-26T07:30:56.723Z,94823.25
2023-03-26T07:33:52.949Z,94831.41
2023-03-26T07:36:56.423Z,94840.81
2023-03-26T07:39:55.696Z,94831.25
2023-03-26T07:43:02.216Z,94836.34
2023-03-26T07:45:39.896Z,94833.19
2023-03-26T07:48:16.015Z,94840.91
2023-03-26T07:50:42.839Z,94861.91
2023-03-26T07:53:10.344Z,94874.78
2023-03-26T07:55:52.980Z,94890.09
2023-03-26T07:58:41.172Z,94875.97
2023-03-26T08:01:43.809Z,94894.28
2023-03-26T08:04:39.959Z,94874.31
2023-03-26T08:07:51.344Z,94841.16
2023-03-26T08:10:52.621Z,94818.72
2023-03-26T08:14:09.754Z,94816.06
2023-03-26T08:17:11.313Z,94844.53
2023-03-26T08:20:11.719Z,94862.31
2023-03-26T08:23:01.067Z,94857.78
2023-03-26T08:26:13.858Z,94844.97
2023-03-26T08:29:01.683Z,94815.91
2023-03-26T08:31:50.190Z,94862.22
2023-03-26T08:34:36.670Z,94868.16
2023-03-26T08:37:23.527Z,94884.69
2023-03-26T08:40:10.357Z,94874.44
2023-03-26T08:43:31.487Z,94857.63
2023-03-26T08:46:27.171Z,94860.03
2023-03-26T08:49:31.947Z,94866.31
2023-03-26T08:52:29.055Z,94866.28
2023-03-26T08:55:13.891Z,94854.72
2023-03-26T08:58:25.457Z,94854.97
2023-03-26T09:01:29.277Z,94847.50
2023-03-26T09:04:14.466Z,94858.34
2023-03-26T09:07:07.767Z,94858.78
2023-03-26T09:10:11.297Z,94856.88
2023-03-26T09:13:14.867Z,94853.94
2023-03-26T09:16:08.234Z,94850.25
2023-03-26T09:19:02.542Z,94852.75
2023-03-26T09:22:06.442Z,94839.25
2023-03-26T09:24:51.517Z,94851.03
2023-03-26T09:27:56.523Z,94855.19
2023-03-26T09:30:40.978Z,94843.47
2023-03-26T09:33:28.350Z,94843.53
2023-03-26T09:36:18.515Z,94834.88
2023-03-26T09:38:53.287Z,94839.34
2023-03-26T09:41:38.263Z,94836.66
2023-03-26T09:44:19.587Z,94819.72
2023-03-26T09:46:57.738Z,94809.97
2023-03-26T09:49:33.097Z,94811.97
2023-03-26T09:52:23.919Z,94796.13
2023-03-26T09:55:13.484Z,94796.34
2023-03-26T09:58:01.587Z,94802.97
2023-03-26T10:00:40.020Z,94810.19
2023-03-26T10:03:30.898Z,94813.31
2023-03-26T10:06:30.285Z,94803.63
2023-03-26T10:09:19.590Z,94823.13
2023-03-26T10:12:16.494Z,94820.72
2023-03-26T10:15:28.880Z,94822.97
2023-03-26T10:18:27.145Z,94829.19
2023-03-26T10:21:10.606Z,94825.06
2023-03-26T10:23:52.201Z,94815.72
2023-03-26T10:26:35.019Z,94819.09
2023-03-26T10:29:50.431Z,94818.78
2023-03-26T10:32:19.948Z,94835.38
2023-03-26T10:35:15.485Z,94852.38
2023-03-26T10:38:01.573Z,94848.63
2023-03-26T10:40:53.544Z,94848.41
2023-03-26T10:44:01.603Z,94838.78
2023-03-26T10:46:53.435Z,94852.25
2023-03-26T10:49:50.715Z,94853.25
2023-03-26T10:52:46.566Z,94847.78
2023-03-26T10:55:35.044Z,94837.66
2023-03-26T10:58:20.398Z,94843.16
2023-03-26T11:01:04.148Z,94839.72
2023-03-26T11:03:52.338Z,94847.69
2023-03-26T11:06:33.821Z,94828.84
2023-03-26T11:09:19.827Z,94812.84
2023-03-26T11:12:00.902Z,94828.47
2023-03-26T11:14:46.716Z,94827.47
2023-03-26T11:17:41.581Z,94821.09
2023-03-26T11:20:17.362Z,94833.47
2023-03-26T11:23:08.442Z,94835.13
2023-03-26T11:25:42.895Z,94840.97
2023-03-26T11:29:05.860Z,94830.94
2023-03-26T11:32:03.601Z,94844.03
2023-03-26T11:35:00.660Z,94837.22
2023-03-26T11:37:55.204Z,94848.34
2023-03-26T11:40:31.829Z,94859.53
2023-03-26T11:43:08.697Z,94846.03
2023-03-26T11:45:39.065Z,94813.53
2023-03-26T11:48:17.464Z,94822.38
2023-03-26T11:50:53.827Z,94807.41
2023-03-26T11:53:27.449Z,94803.94
2023-03-26T11:56:03.021Z,94805.59
2023-03-26T11:59:14.478Z,94774.13
2023-03-26T12:01:44.165Z,94749.50
2023-03-26T12:04:14.103Z,94759.22
2023-03-26T12:06:56.080Z,94737.19
2023-03-26T12:09:23.741Z,94727.16
2023-03-26T12:11:59.660Z,94727.94
2023-03-26T12:14:30.305Z,94706.00
2023-03-26T12:17:05.468Z,94700.16
2023-03-26T12:19:40.018Z,94713.06
2023-03-26T12:22:28.129Z,94712.75
2023-03-26T12:25:21.812Z,94730.25
2023-03-26T12:27:50.897Z,94732.66
2023-03-26T12:30:23.581Z,94734.50
2023-03-26T12:32:53.229Z,94704.72
2023-03-26T12:35:26.288Z,94691.84
2023-03-26T12:37:54.480Z,94683.28
2023-03-26T12:40:32.794Z,94680.34
2023-03-26T12:44:47.107Z,94685.47
2023-03-26T12:47:56.521Z,94688.78
2023-03-26T12:48:40.944Z,94730.69
2023-03-26T12:51:18.254Z,94760.88
2023-03-26T12:53:58.687Z,94760.22
2023-03-26T12:57:12.694Z,94769.19
2023-03-26T12:59:59.348Z,94783.09
2023-03-26T13:02:52.843Z,94803.28
2023-03-26T13:05:34.552Z,94868.97
2023-03-26T13:08:39.066Z,94854.66
2023-03-26T13:11:19.892Z,94828.25
2023-03-26T13:14:15.455Z,94778.31
2023-03-26T13:16:53.151Z,94769.72
2023-03-26T13:19:42.233Z,94737.50
2023-03-26T13:22:33.353Z,94752.41
2023-03-26T13:24:59.783Z,94748.94
2023-03-26T13:27:39.846Z,94775.53
2023-03-26T13:30:36.127Z,94778.59
2023-03-26T13:33:24.287Z,94775.81
2023-03-26T13:36:22.600Z,94768.69
2023-03-26T13:38:59.263Z,94778.44
2023-03-26T13:41:50.360Z,94788.16
2023-03-26T13:44:44.757Z,94779.81
2023-03-26T13:47:23.467Z,94773.78
2023-03-26T13:49:56.825Z,94760.91
2023-03-26T13:52:49.704Z,94760.72
2023-03-26T13:55:22.074Z,94758.47
2023-03-26T13:58:10.252Z,94758.69
2023-03-26T14:01:00.822Z,94765.72
2023-03-26T14:03:41.800Z,94773.31
2023-03-26T14:06:26.362Z,94766.03
2023-03-26T14:09:17.232Z,94767.19
2023-03-26T14:11:57.843Z,94768.00
2023-03-26T14:14:45.587Z,94777.09
2023-03-26T14:17:23.188Z,94783.03
2023-03-26T14:20:34.651Z,94795.81
2023-03-26T14:23:42.350Z,94788.50
2023-03-26T14:26:14.483Z,94794.56
2023-03-26T14:29:02.669Z,94795.75
2023-03-26T14:31:58.263Z,94789.44
2023-03-26T14:34:39.777Z,94777.44
2023-03-26T14:37:27.899Z,94780.53
2023-03-26T14:40:31.259Z,94793.09
2023-03-26T14:43:09.464Z,94793.47
2023-03-26T14:46:03.565Z,94789.69
2023-03-26T14:48:53.993Z,94789.44
2023-03-26T14:51:49.660Z,94797.34
2023-03-26T14:54:23.019Z,94796.44
2023-03-26T14:57:14.259Z,94792.91
2023-03-26T15:00:01.864Z,94790.03
2023-03-26T15:02:46.501Z,94788.97
2023-03-26T15:05:15.829Z,94789.41
2023-03-26T15:08:11.723Z,94789.03
2023-03-26T15:11:15.813Z,94791.28
2023-03-26T15:14:14.201Z,94791.88
2023-03-26T15:17:10.274Z,94795.94
2023-03-26T15:20:13.291Z,94782.88
2023-03-26T15:23:17.163Z,94786.75
2023-03-26T15:26:17.760Z,94774.59
2023-03-26T15:28:56.124Z,94773.06
2023-03-26T15:31:55.111Z,94768.69
2023-03-26T15:34:50.338Z,94766.06
2023-03-26T15:37:38.540Z,94773.94
2023-03-26T15:40:13.837Z,94764.53
2023-03-26T15:42:46.362Z,94761.63
2023-03-26T15:45:26.346Z,94762.28
2023-03-26T15:48:11.251Z,94759.88
2023-03-26T15:50:53.714Z,94749.59
2023-03-26T15:53:42.844Z,94751.66
2023-03-26T15:56:41.307Z,94744.59
2023-03-26T15:59:10.745Z,94739.81
2023-03-26T16:02:00.398Z,94734.91
2023-03-26T16:04:50.066Z,94734.66
2023-03-26T16:07:39.855Z,94736.28
2023-03-26T16:10:25.277Z,94728.41
2023-03-26T16:13:16.851Z,94729.47
2023-03-26T16:15:53.215Z,94719.75
2023-03-26T16:18:35.099Z,94722.00
2023-03-26T16:21:31.686Z,94719.75
2023-03-26T16:24:02.075Z,94713.78
2023-03-26T16:26:31.394Z,94708.81
2023-03-26T16:29:21.263Z,94705.25
2023-03-26T16:32:18.616Z,94690.06
2023-03-26T16:34:58.435Z,94696.06
2023-03-26T16:37:50.209Z,94693.38
2023-03-26T16:40:16.663Z,94688.22
2023-03-26T16:43:16.597Z,94681.19
2023-03-26T16:46:08.434Z,94682.63
2023-03-26T16:48:34.886Z,94681.22
2023-03-26T16:51:40.945Z,94667.16
2023-03-26T16:54:33.423Z,94672.06
2023-03-26T16:57:30.535Z,94669.59
2023-03-26T17:00:07.394Z,94667.22
2023-03-26T17:02:34.148Z,94675.72
2023-03-26T17:05:23.728Z,94669.44
2023-03-26T17:08:16.077Z,94668.63
2023-03-26T17:10:55.463Z,94672.91
2023-03-26T17:13:47.431Z,94670.16
2023-03-26T17:16:33.458Z,94664.41
2023-03-26T17:19:24.420Z,94668.28
2023-03-26T17:21:56.601Z,94665.69
2023-03-26T17:24:51.484Z,94664.81
2023-03-26T17:27:28.755Z,94663.19
2023-03-26T17:30:23.360Z,94656.16
2023-03-26T17:33:01.449Z,94646.34
2023-03-26T17:35:36.327Z,94651.88
2023-03-26T17:38:04.347Z,94652.22
2023-03-26T17:40:46.485Z,94658.69
2023-03-26T17:43:35.306Z,94656.56
2023-03-26T17:46:26.997Z,94652.38
2023-03-26T17:49:07.386Z,94655.94
2023-03-26T17:51:46.249Z,94650.25
2023-03-26T17:54:38.070Z,94644.72
2023-03-26T17:57:25.076Z,94645.78
2023-03-26T17:59:57.604Z,94638.50
2023-03-26T18:02:41.501Z,94630.84
2023-03-26T18:05:12.276Z,94631.91
2023-03-26T18:08:13.149Z,94636.25
2023-03-26T18:10:58.261Z,94636.56
2023-03-26T18:13:30.604Z,94643.91
2023-03-26T18:16:39.108Z,94636.31
2023-03-26T18:19:16.605Z,94657.63
2023-03-26T18:21:44.100Z,94667.22
2023-03-26T18:24:17.893Z,94684.44
2023-03-26T18:26:51.481Z,94689.00
2023-03-26T18:29:22.277Z,94688.00
2023-03-26T18:32:08.616Z,94691.97
2023-03-26T18:34:39.868Z,94691.88
2023-03-26T18:37:21.436Z,94706.50
2023-03-26T18:40:01.477Z,94694.78
2023-03-26T18:42:32.308Z,94695.56
2023-03-26T18:45:07.677Z,94683.34
2023-03-26T18:47:34.341Z,94691.28
2023-03-26T18:50:01.070Z,94689.03
2023-03-26T18:52:29.609Z,94680.91
2023-03-26T18:54:58.166Z,94688.59
2023-03-26T18:57:29.515Z,94680.19
2023-03-26T19:00:15.289Z,94674.81
2023-03-26T19:02:42.405Z,94675.09
2023-03-26T19:05:15.331Z,94676.00
2023-03-26T19:07:43.921Z,94663.19
2023-03-26T19:10:17.004Z,94665.06
2023-03-26T19:12:43.562Z,94671.13
2023-03-26T19:15:14.630Z,94659.16
2023-03-26T19:17:48.283Z,94655.75
2023-03-26T19:20:22.425Z,94649.03
2023-03-26T19:22:50.648Z,94647.72
2023-03-26T19:25:24.283Z,94639.34
2023-03-26T19:27:51.409Z,94644.97
2023-03-26T19:30:28.852Z,94632.88
2023-03-26T19:32:55.783Z,94639.03
2023-03-26T19:35:41.906Z,94635.72
2023-03-26T19:38:25.023Z,94627.59
2023-03-26T19:40:55.477Z,94624.69
2023-03-26T19:43:24.363Z,94623.16
2023-03-26T19:46:00.016Z,94629.72
2023-03-26T19:48:46.598Z,94618.72
2023-03-26T19:51:36.672Z,94632.03
2023-03-26T19:54:13.470Z,94632.13
2023-03-26T19:56:39.996Z,94632.41
2023-03-26T19:59:06.483Z,94630.00
2023-03-26T20:01:33.312Z,94624.63
2023-03-26T20:04:04.074Z,94629.75
2023-03-26T20:06:42.574Z,94631.97
2023-03-26T20:09:11.683Z,94634.31
2023-03-26T20:11:39.012Z,94629.72
2023-03-26T20:14:18.198Z,94634.84
2023-03-26T20:16:45.802Z,94633.53
2023-03-26T20:19:14.307Z,94642.34
2023-03-26T20:21:42.065Z,94641.25
2023-03-26T20:24:15.660Z,94651.81
2023-03-26T20:26:42.952Z,94649.16
2023-03-26T20:29:09.605Z,94646.53
2023-03-26T20:31:36.249Z,94640.78
2023-03-26T20:34:02.877Z,94640.66
2023-03-26T20:36:33.900Z,94651.91
2023-03-26T20:39:03.732Z,94648.28
2023-03-26T20:41:30.362Z,94649.06
2023-03-26T20:43:56.932Z,94649.63
2023-03-26T20:46:31.175Z,94651.69
2023-03-26T20:48:58.964Z,94652.16
2023-03-26T20:51:25.839Z,94666.13
2023-03-26T20:53:52.426Z,94660.91
2023-03-26T20:56:21.473Z,94656.44
2023-03-26T20:58:52.583Z,94660.19
2023-03-26T21:01:24.278Z,94663.94
2023-03-26T21:03:50.799Z,94671.69
2023-03-26T21:06:17.277Z,94676.22
2023-03-26T21:08:44.661Z,94672.06
2023-03-26T21:11:26.538Z,94665.69
2023-03-26T21:14:09.190Z,94675.19
2023-03-26T21:16:36.047Z,94680.91
2023-03-26T21:19:02.823Z,94683.94
2023-03-26T21:21:43.404Z,94695.53
2023-03-26T21:24:33.646Z,94699.69
2023-03-26T21:27:17.081Z,94698.75
2023-03-26T21:29:43.806Z,94711.69
2023-03-26T21:32:11.283Z,94717.41
2023-03-26T21:34:42.107Z,94721.66
2023-03-26T21:37:15.916Z,94718.66
2023-03-26T21:39:42.560Z,94723.28
2023-03-26T21:42:11.188Z,94728.47
2023-03-26T21:44:38.481Z,94733.00
2023-03-26T21:47:05.849Z,94726.13
2023-03-26T21:49:33.471Z,94735.91
2023-03-26T21:52:00.267Z,94736.72
2023-03-26T21:54:30.070Z,94732.38
2023-03-26T21:57:31.977Z,94734.59
2023-03-26T22:00:00.971Z,94737.06
2023-03-26T22:02:39.063Z,94740.81
2023-03-26T22:05:24.448Z,94745.94
2023-03-26T22:07:54.788Z,94752.56
2023-03-26T22:10:21.765Z,94754.19
2023-03-26T22:12:48.607Z,94752.06
2023-03-26T22:15:15.393Z,94756.59
2023-03-26T22:17:42.030Z,94763.34
2023-03-26T22:20:14.342Z,94764.44
2023-03-26T22:22:42.503Z,94769.06
2023-03-26T22:25:09.095Z,94783.66
2023-03-26T22:27:44.105Z,94788.56
2023-03-26T22:30:12.910Z,94788.75
2023-03-26T22:32:40.160Z,94778.06
2023-03-26T22:35:07.217Z,94791.81
2023-03-26T22:37:34.288Z,94800.06
2023-03-26T22:40:00.933Z,94813.91
2023-03-26T22:42:27.524Z,94822.53
2023-03-26T22:44:54.020Z,94828.59
2023-03-26T22:47:20.557Z,94843.63
2023-03-26T22:49:47.139Z,94849.25
2023-03-26T22:52:13.616Z,94848.34
2023-03-26T22:54:40.156Z,94839.56
2023-03-26T22:57:06.667Z,94825.53
2023-03-26T22:59:33.181Z,94848.63
2023-03-26T23:01:59.687Z,94843.56
2023-03-26T23:04:30.508Z,94845.44
2023-03-26T23:06:57.503Z,94854.59
2023-03-26T23:09:23.981Z,94861.84
2023-03-26T23:11:50.597Z,94854.50
2023-03-26T23:14:17.165Z,94870.84
2023-03-26T23:16:43.637Z,94863.66
2023-03-26T23:19:10.204Z,94874.91
2023-03-26T23:21:36.702Z,94869.56
2023-03-26T23:24:03.332Z,94876.44
2023-03-26T23:26:34.962Z,94880.06
2023-03-26T23:29:04.459Z,94883.50
2023-03-26T23:31:31.152Z,94899.09
2023-03-26T23:33:57.990Z,94901.09
2023-03-26T23:36:25.673Z,94899.66
2023-03-26T23:38:52.299Z,94901.09
2023-03-26T23:41:21.959Z,94921.06
2023-03-26T23:43:53.954Z,94927.00
2023-03-26T23:46:24.384Z,94916.88
2023-03-26T23:48:51.467Z,94916.34
2023-03-26T23:51:19.059Z,94920.22
2023-03-26T23:53:47.094Z,94930.19
2023-03-26T23:56:13.735Z,94937.28
2023-03-26T23:58:40.191Z,94934.09
